Time;durP1;ratioP1;P1;durP2;ratioP2;P2;SDS_P1;SDS_P2;PMS_P1;PMS_P2;Temp;Humidity;BMP_temperature;BMP_pressure;BME280_temperature;BME280_humidity;BME280_pressure;Samples;Min_cycle;Max_cycle;Signal;HPM_P1;HPM_P2
2021/09/24 00:00:00;;;;;;;4.05;1.45;;;16.60;88.30;;;;;;2055433;28;20031;-93
2021/09/24 00:01:02;;;;;;;3.78;1.20;;;16.60;88.30;;;;;;2048811;28;20589;-94
2021/09/24 00:02:03;;;;;;;2.88;1.30;;;16.60;88.30;;;;;;2024401;29;20091;-93
2021/09/24 00:03:03;;;;;;;3.58;1.13;;;16.60;88.40;;;;;;2039051;28;20080;-93
2021/09/24 00:04:06;;;;;;;3.92;1.05;;;16.60;88.40;;;;;;2054541;28;20129;-93
2021/09/24 00:05:08;;;;;;;2.50;1.20;;;16.60;88.40;;;;;;2047098;28;20075;-93
2021/09/24 00:06:08;;;;;;;2.03;0.90;;;16.60;88.40;;;;;;2049971;28;20039;-93
2021/09/24 00:07:09;;;;;;;2.45;1.10;;;16.60;88.50;;;;;;2041888;29;20171;-93
2021/09/24 00:08:10;;;;;;;2.80;1.10;;;16.60;88.50;;;;;;2044914;28;20078;-93
2021/09/24 00:09:11;;;;;;;2.95;1.20;;;16.60;88.50;;;;;;2054701;28;20137;-93
2021/09/24 00:10:15;;;;;;;4.72;1.55;;;16.60;88.60;;;;;;2053329;28;20070;-93
2021/09/24 00:11:16;;;;;;;2.22;1.10;;;16.60;88.60;;;;;;2055977;28;20066;-93
2021/09/24 00:12:16;;;;;;;2.70;1.30;;;16.60;88.60;;;;;;2041625;29;20095;-94
2021/09/24 00:13:17;;;;;;;2.88;1.20;;;16.60;88.60;;;;;;2025768;29;20076;-93
2021/09/24 00:14:18;;;;;;;3.75;1.20;;;16.60;88.60;;;;;;2039653;29;20035;-93
2021/09/24 00:15:19;;;;;;;4.22;1.50;;;16.60;88.60;;;;;;2041966;29;20039;-94
2021/09/24 00:16:19;;;;;;;2.75;1.10;;;16.60;88.60;;;;;;2049220;28;20039;-93
2021/09/24 00:17:20;;;;;;;4.97;1.70;;;16.60;88.60;;;;;;2041830;29;20079;-93
2021/09/24 00:18:21;;;;;;;3.38;1.20;;;16.60;88.60;;;;;;2039808;29;20114;-94
2021/09/24 00:19:22;;;;;;;2.80;1.23;;;16.60;88.60;;;;;;2034091;29;20040;-93
2021/09/24 00:20:22;;;;;;;5.10;1.48;;;16.60;88.60;;;;;;2041344;28;20051;-94
2021/09/24 00:21:23;;;;;;;2.70;1.20;;;16.60;88.60;;;;;;2049935;29;20031;-93
2021/09/24 00:22:24;;;;;;;3.90;1.38;;;16.60;88.60;;;;;;2056265;28;20034;-94
2021/09/24 00:23:24;;;;;;;5.05;1.27;;;16.60;88.60;;;;;;2058641;28;20045;-94
2021/09/24 00:24:25;;;;;;;3.75;1.30;;;16.60;88.70;;;;;;2051454;28;20039;-94
2021/09/24 00:25:26;;;;;;;2.15;1.23;;;16.60;88.80;;;;;;2063133;28;20035;-93
2021/09/24 00:26:26;;;;;;;5.18;1.48;;;16.50;88.70;;;;;;2056950;28;20294;-94
2021/09/24 00:27:27;;;;;;;3.78;1.40;;;16.60;89.10;;;;;;2057229;28;20115;-94
2021/09/24 00:28:28;;;;;;;3.50;1.60;;;16.60;88.80;;;;;;2057525;28;20034;-92
2021/09/24 00:29:28;;;;;;;2.75;1.25;;;16.50;88.70;;;;;;2042509;29;20044;-93
2021/09/24 00:30:29;;;;;;;2.45;1.13;;;16.60;88.80;;;;;;2047273;28;20060;-93
2021/09/24 00:31:30;;;;;;;3.20;1.40;;;16.50;88.70;;;;;;2058287;28;20051;-91
2021/09/24 00:32:30;;;;;;;3.08;1.50;;;16.60;88.80;;;;;;2062649;28;20031;-93
2021/09/24 00:33:31;;;;;;;5.20;1.50;;;16.50;88.70;;;;;;2056866;28;20046;-92
2021/09/24 00:34:32;;;;;;;3.47;1.27;;;16.50;88.80;;;;;;2047066;29;20098;-92
2021/09/24 00:35:33;;;;;;;3.70;1.30;;;16.50;88.80;;;;;;2053488;28;20111;-93
2021/09/24 00:36:33;;;;;;;3.28;1.30;;;16.50;88.80;;;;;;2054683;28;20043;-92
2021/09/24 00:37:34;;;;;;;4.00;1.33;;;16.50;88.80;;;;;;2069567;28;20061;-93
2021/09/24 00:38:39;;;;;;;4.55;1.20;;;16.50;88.80;;;;;;2071151;28;20540;-93
2021/09/24 00:39:40;;;;;;;2.22;1.33;;;16.50;88.80;;;;;;2062264;28;20042;-93
2021/09/24 00:40:41;;;;;;;3.70;1.23;;;16.50;88.90;;;;;;2047639;28;20067;-93
2021/09/24 00:41:41;;;;;;;3.13;1.23;;;16.50;88.90;;;;;;2063480;28;20250;-93
2021/09/24 00:42:42;;;;;;;3.33;1.30;;;16.50;88.90;;;;;;2071285;28;20046;-93
2021/09/24 00:43:43;;;;;;;3.65;1.30;;;16.50;89.00;;;;;;2071240;28;20038;-92
2021/09/24 00:44:50;;;;;;;4.38;1.30;;;16.50;88.90;;;;;;2055002;28;20066;-94
2021/09/24 00:45:50;;;;;;;3.45;1.42;;;16.50;89.00;;;;;;2055455;28;20042;-93
2021/09/24 00:46:51;;;;;;;4.85;1.50;;;16.50;88.90;;;;;;2056282;28;20047;-93
2021/09/24 00:47:52;;;;;;;2.80;1.20;;;16.50;88.90;;;;;;2043912;29;20119;-94
2021/09/24 00:48:52;;;;;;;2.22;1.20;;;16.50;88.90;;;;;;2041938;29;20036;-93
2021/09/24 00:49:53;;;;;;;3.55;1.15;;;16.50;88.90;;;;;;2039613;29;20495;-94
2021/09/24 00:50:54;;;;;;;4.10;1.70;;;16.50;88.90;;;;;;2049362;28;20110;-93
2021/09/24 00:51:55;;;;;;;3.22;1.25;;;16.50;88.90;;;;;;2065567;28;20065;-93
2021/09/24 00:52:55;;;;;;;3.55;1.33;;;16.50;88.90;;;;;;2058262;28;20098;-93
2021/09/24 00:53:56;;;;;;;3.15;1.23;;;16.50;88.80;;;;;;2050935;28;20134;-93
2021/09/24 00:54:58;;;;;;;4.70;1.42;;;16.50;88.80;;;;;;2057147;28;20096;-93
2021/09/24 00:55:59;;;;;;;3.88;1.40;;;16.50;88.90;;;;;;2042335;28;20042;-93
2021/09/24 00:57:01;;;;;;;4.43;1.65;;;16.50;88.80;;;;;;2049042;28;20447;-94
2021/09/24 00:58:02;;;;;;;3.70;1.50;;;16.50;88.80;;;;;;2058946;28;20051;-93
2021/09/24 00:59:02;;;;;;;3.53;1.60;;;16.50;88.80;;;;;;2049453;28;20043;-94
2021/09/24 01:00:04;;;;;;;2.85;1.35;;;16.50;88.70;;;;;;2040878;29;20102;-94
2021/09/24 01:01:05;;;;;;;3.40;1.40;;;16.50;88.70;;;;;;2050158;28;20039;-93
2021/09/24 01:02:06;;;;;;;4.03;1.63;;;16.50;88.70;;;;;;2051921;28;20058;-94
2021/09/24 01:03:07;;;;;;;3.00;1.30;;;16.50;88.80;;;;;;2065261;28;20073;-93
2021/09/24 01:04:07;;;;;;;3.53;1.38;;;16.50;88.80;;;;;;2065304;28;20046;-94
2021/09/24 01:05:09;;;;;;;3.47;1.33;;;16.50;88.80;;;;;;2065221;28;20030;-93
2021/09/24 01:06:09;;;;;;;4.30;1.73;;;16.50;88.80;;;;;;2064551;28;20045;-92
2021/09/24 01:07:13;;;;;;;3.85;1.30;;;16.50;88.80;;;;;;2052140;28;20491;-93
2021/09/24 01:08:14;;;;;;;4.97;1.67;;;16.50;88.90;;;;;;2058322;28;20046;-93
2021/09/24 01:09:15;;;;;;;4.13;1.40;;;16.50;88.90;;;;;;2064281;28;20065;-93
2021/09/24 01:10:17;;;;;;;3.25;1.30;;;16.50;88.80;;;;;;2056940;28;20197;-93
2021/09/24 01:11:17;;;;;;;3.00;1.33;;;16.50;88.90;;;;;;2048681;28;20096;-93
2021/09/24 01:12:19;;;;;;;4.65;1.75;;;16.50;88.80;;;;;;2050522;28;20035;-93
2021/09/24 01:13:19;;;;;;;2.97;1.40;;;16.50;88.80;;;;;;2048206;29;20090;-93
2021/09/24 01:14:20;;;;;;;3.03;1.30;;;16.50;88.80;;;;;;2049346;28;20494;-93
2021/09/24 01:15:21;;;;;;;3.03;1.23;;;16.50;88.90;;;;;;2063843;28;20038;-93
2021/09/24 01:16:21;;;;;;;5.05;1.25;;;16.50;88.90;;;;;;2050948;28;20044;-93
2021/09/24 01:17:22;;;;;;;3.85;1.50;;;16.50;88.90;;;;;;2065435;28;20484;-93
2021/09/24 01:18:25;;;;;;;3.17;1.33;;;16.50;88.90;;;;;;2064033;28;20069;-93
2021/09/24 01:19:27;;;;;;;3.63;1.50;;;16.50;88.90;;;;;;2048439;28;20505;-93
2021/09/24 01:20:27;;;;;;;3.92;1.30;;;16.50;88.80;;;;;;2056687;28;20030;-93
2021/09/24 01:21:28;;;;;;;5.45;1.60;;;16.50;88.80;;;;;;2053526;28;20042;-92
2021/09/24 01:22:30;;;;;;;4.65;1.77;;;16.40;88.80;;;;;;2041198;29;20055;-90
2021/09/24 01:23:31;;;;;;;4.63;1.90;;;16.50;88.90;;;;;;2036560;28;20082;-94
2021/09/24 01:24:31;;;;;;;3.67;1.55;;;16.40;88.80;;;;;;2033758;29;20047;-93
2021/09/24 01:25:32;;;;;;;2.88;1.48;;;16.40;88.80;;;;;;2041893;29;20487;-93
2021/09/24 01:26:33;;;;;;;3.80;1.58;;;16.50;88.90;;;;;;2048799;28;20043;-94
2021/09/24 01:27:33;;;;;;;2.40;1.25;;;16.40;88.80;;;;;;2050541;28;20034;-93
2021/09/24 01:28:34;;;;;;;4.88;1.67;;;16.50;88.90;;;;;;2051962;28;20105;-94
2021/09/24 01:29:35;;;;;;;3.83;1.60;;;16.50;88.90;;;;;;2054901;28;20094;-94
2021/09/24 01:30:35;;;;;;;4.32;1.50;;;16.50;88.90;;;;;;2049467;28;20431;-93
2021/09/24 01:31:36;;;;;;;4.50;1.40;;;16.40;88.80;;;;;;2041686;29;20078;-94
2021/09/24 01:32:37;;;;;;;4.68;1.80;;;16.40;88.80;;;;;;2048994;29;20066;-94
2021/09/24 01:33:43;;;;;;;3.60;1.30;;;16.40;89.40;;;;;;2041006;29;20108;-94
2021/09/24 01:34:44;;;;;;;4.28;1.50;;;16.40;88.70;;;;;;2057631;28;20039;-94
2021/09/24 01:35:45;;;;;;;5.55;1.85;;;16.40;88.70;;;;;;2048723;29;20513;-93
2021/09/24 01:36:46;;;;;;;3.90;1.42;;;16.40;88.70;;;;;;2041216;29;20035;-94
2021/09/24 01:37:46;;;;;;;3.38;1.38;;;16.40;88.70;;;;;;2040973;29;20110;-93
2021/09/24 01:38:47;;;;;;;3.83;1.40;;;16.40;88.70;;;;;;2031463;29;20135;-93
2021/09/24 01:39:48;;;;;;;4.88;1.55;;;16.40;88.80;;;;;;2027052;29;20036;-93
2021/09/24 01:40:48;;;;;;;3.40;1.48;;;16.40;88.80;;;;;;2042547;29;20135;-93
2021/09/24 01:41:50;;;;;;;3.42;1.33;;;16.40;88.80;;;;;;2056002;28;20046;-93
2021/09/24 01:42:53;;;;;;;4.95;1.63;;;16.40;88.90;;;;;;2049030;28;20477;-93
2021/09/24 01:43:54;;;;;;;3.95;1.50;;;16.40;88.90;;;;;;2041561;28;20036;-93
2021/09/24 01:44:54;;;;;;;4.53;1.55;;;16.40;88.90;;;;;;2056819;28;20031;-93
2021/09/24 01:45:55;;;;;;;3.90;1.45;;;16.40;88.90;;;;;;2063534;28;20034;-93
2021/09/24 01:46:56;;;;;;;3.30;1.70;;;16.40;88.90;;;;;;2048700;29;20063;-93
2021/09/24 01:47:56;;;;;;;4.38;1.30;;;16.40;88.90;;;;;;2042732;29;20046;-94
2021/09/24 01:48:57;;;;;;;3.35;1.50;;;16.40;88.90;;;;;;2039060;29;20065;-93
2021/09/24 01:49:59;;;;;;;4.63;1.55;;;16.40;88.90;;;;;;2045403;28;20031;-93
2021/09/24 01:51:00;;;;;;;4.10;1.55;;;16.40;88.90;;;;;;2058840;28;20043;-88
2021/09/24 01:52:01;;;;;;;4.22;1.90;;;16.40;88.90;;;;;;2043314;28;20033;-90
2021/09/24 01:53:01;;;;;;;4.25;1.48;;;16.40;88.90;;;;;;2025379;29;20037;-93
2021/09/24 01:54:03;;;;;;;3.58;1.50;;;16.30;88.80;;;;;;2041543;29;20031;-93
2021/09/24 01:55:05;;;;;;;3.47;1.60;;;16.40;88.90;;;;;;2040168;29;20039;-93
2021/09/24 01:56:06;;;;;;;4.35;1.52;;;16.40;88.90;;;;;;2035219;28;20107;-93
2021/09/24 01:57:06;;;;;;;3.55;1.48;;;16.40;88.90;;;;;;2039458;29;20044;-93
2021/09/24 01:58:07;;;;;;;4.45;1.50;;;16.40;88.80;;;;;;2040724;29;20498;-93
2021/09/24 01:59:08;;;;;;;5.57;1.42;;;16.40;88.80;;;;;;2056331;28;20054;-94
2021/09/24 02:00:11;;;;;;;3.97;1.35;;;16.40;88.80;;;;;;2056767;28;20521;-93
2021/09/24 02:01:11;;;;;;;5.05;1.45;;;16.40;88.80;;;;;;2064077;28;20493;-94
2021/09/24 02:02:12;;;;;;;5.82;1.63;;;16.40;88.80;;;;;;2057173;28;20452;-93
2021/09/24 02:03:13;;;;;;;2.75;1.20;;;16.40;88.80;;;;;;2041215;29;20042;-93
2021/09/24 02:04:15;;;;;;;3.67;1.33;;;16.40;88.80;;;;;;2049167;28;20085;-93
2021/09/24 02:05:16;;;;;;;3.88;1.52;;;16.40;88.80;;;;;;2056644;28;20060;-94
2021/09/24 02:06:17;;;;;;;3.05;1.33;;;16.40;88.80;;;;;;2049337;28;20466;-93
2021/09/24 02:07:17;;;;;;;3.47;1.52;;;16.40;88.70;;;;;;2041098;29;20577;-93
2021/09/24 02:08:18;;;;;;;4.00;1.52;;;16.40;88.70;;;;;;2048782;28;20047;-93
2021/09/24 02:09:18;;;;;;;5.10;1.70;;;16.40;88.70;;;;;;2063034;28;20039;-93
2021/09/24 02:10:19;;;;;;;3.28;1.40;;;16.40;88.70;;;;;;2054721;28;20555;-94
2021/09/24 02:11:20;;;;;;;3.97;1.65;;;16.40;88.70;;;;;;2057081;28;20045;-93
2021/09/24 02:12:20;;;;;;;3.78;1.77;;;16.40;88.70;;;;;;2060236;28;20056;-93
2021/09/24 02:13:21;;;;;;;5.22;1.60;;;16.40;88.70;;;;;;2041908;29;20035;-93
2021/09/24 02:14:22;;;;;;;4.00;1.60;;;16.40;88.80;;;;;;2036597;29;20521;-93
2021/09/24 02:15:24;;;;;;;2.67;1.35;;;16.40;88.80;;;;;;2048424;28;20059;-93
2021/09/24 02:16:25;;;;;;;5.43;1.65;;;16.40;88.80;;;;;;2051121;29;20043;-93
2021/09/24 02:17:26;;;;;;;4.00;1.77;;;16.30;88.80;;;;;;2043229;28;20138;-94
2021/09/24 02:18:26;;;;;;;4.00;1.60;;;16.30;88.70;;;;;;2058231;28;20043;-93
2021/09/24 02:19:27;;;;;;;3.83;1.60;;;16.30;89.40;;;;;;2069889;28;20082;-93
2021/09/24 02:20:27;;;;;;;3.70;1.60;;;16.40;88.90;;;;;;2056454;28;20047;-92
2021/09/24 02:21:28;;;;;;;4.85;1.70;;;16.30;88.80;;;;;;2046437;29;20066;-93
2021/09/24 02:22:29;;;;;;;4.20;1.58;;;16.30;88.80;;;;;;2042167;28;20091;-93
2021/09/24 02:23:29;;;;;;;4.38;1.83;;;16.30;88.80;;;;;;2056952;28;20121;-94
2021/09/24 02:24:30;;;;;;;2.72;1.50;;;16.30;88.80;;;;;;2048707;28;20070;-94
2021/09/24 02:25:31;;;;;;;5.45;1.85;;;16.40;88.90;;;;;;2047990;28;20043;-94
2021/09/24 02:26:32;;;;;;;3.63;1.75;;;16.40;88.90;;;;;;2049236;28;20047;-94
2021/09/24 02:27:32;;;;;;;4.20;1.65;;;16.30;88.80;;;;;;2033784;29;20052;-94
2021/09/24 02:28:33;;;;;;;3.88;1.70;;;16.30;88.80;;;;;;2041905;28;20040;-94
2021/09/24 02:29:34;;;;;;;2.70;1.33;;;16.30;88.80;;;;;;2041810;29;20409;-93
2021/09/24 02:30:34;;;;;;;4.15;1.70;;;16.40;88.90;;;;;;2050271;28;20138;-94
2021/09/24 02:31:35;;;;;;;3.75;1.60;;;16.40;88.90;;;;;;2050840;29;20086;-93
2021/09/24 02:32:36;;;;;;;3.55;1.60;;;16.40;88.90;;;;;;2046819;29;20024;-93
2021/09/24 02:33:37;;;;;;;3.75;1.80;;;16.30;88.90;;;;;;2048915;28;20085;-93
2021/09/24 02:34:38;;;;;;;4.78;1.80;;;16.30;88.90;;;;;;2048686;28;20098;-93
2021/09/24 02:35:39;;;;;;;4.78;1.90;;;16.30;89.40;;;;;;2040368;29;20032;-93
2021/09/24 02:36:40;;;;;;;3.42;1.63;;;16.40;88.90;;;;;;2052394;28;20091;-94
2021/09/24 02:37:40;;;;;;;3.95;1.83;;;16.30;88.90;;;;;;2050792;28;20122;-93
2021/09/24 02:38:41;;;;;;;5.05;1.88;;;16.40;89.50;;;;;;2048139;29;20066;-94
2021/09/24 02:39:42;;;;;;;4.78;2.10;;;16.30;88.90;;;;;;2040591;29;20032;-93
2021/09/24 02:40:42;;;;;;;6.28;2.10;;;16.40;88.90;;;;;;2040268;28;20038;-94
2021/09/24 02:41:43;;;;;;;4.43;1.60;;;16.40;88.90;;;;;;2049429;28;20039;-94
2021/09/24 02:42:44;;;;;;;3.88;1.70;;;16.40;88.90;;;;;;2064146;28;20066;-93
2021/09/24 02:43:44;;;;;;;7.15;2.10;;;16.40;88.90;;;;;;2041937;28;20050;-93
2021/09/24 02:44:46;;;;;;;4.07;1.80;;;16.40;88.90;;;;;;2047610;28;20039;-94
2021/09/24 02:45:47;;;;;;;4.10;2.10;;;16.40;88.90;;;;;;2051072;28;20505;-93
2021/09/24 02:46:47;;;;;;;3.00;1.77;;;16.40;88.90;;;;;;2040476;29;20466;-93
2021/09/24 02:47:48;;;;;;;3.38;1.95;;;16.40;88.90;;;;;;2056427;28;20042;-94
2021/09/24 02:48:48;;;;;;;3.95;2.03;;;16.30;88.90;;;;;;2064789;28;20034;-93
2021/09/24 02:49:49;;;;;;;4.65;1.67;;;16.30;89.00;;;;;;2058586;28;20038;-94
2021/09/24 02:50:50;;;;;;;5.35;2.30;;;16.30;89.00;;;;;;2058549;28;20045;-94
2021/09/24 02:51:51;;;;;;;4.55;1.70;;;16.30;89.00;;;;;;2059935;28;20061;-93
2021/09/24 02:52:51;;;;;;;4.18;1.90;;;16.30;89.00;;;;;;2064630;28;20039;-93
2021/09/24 02:53:52;;;;;;;4.28;2.00;;;16.30;89.10;;;;;;2051454;28;20557;-93
2021/09/24 02:54:52;;;;;;;5.10;1.98;;;16.30;89.00;;;;;;2049683;28;20405;-93
2021/09/24 02:55:53;;;;;;;4.45;1.90;;;16.30;89.00;;;;;;2050261;28;20518;-93
2021/09/24 02:56:54;;;;;;;3.50;1.90;;;16.30;89.00;;;;;;2046770;29;20131;-93
2021/09/24 02:57:54;;;;;;;4.38;1.80;;;16.40;89.10;;;;;;2046739;29;20050;-94
2021/09/24 02:58:55;;;;;;;4.65;2.17;;;16.40;89.10;;;;;;2058425;28;20039;-93
2021/09/24 02:59:56;;;;;;;3.13;1.70;;;16.40;89.10;;;;;;2059216;28;20102;-94
2021/09/24 03:00:56;;;;;;;5.00;2.00;;;16.40;89.10;;;;;;2065368;28;20043;-93
2021/09/24 03:01:58;;;;;;;4.38;2.20;;;16.40;89.10;;;;;;2058145;28;20134;-93
2021/09/24 03:02:58;;;;;;;4.13;2.00;;;16.30;89.00;;;;;;2050514;28;20122;-93
2021/09/24 03:03:59;;;;;;;6.18;1.90;;;16.40;89.10;;;;;;2042450;29;20037;-93
2021/09/24 03:05:00;;;;;;;4.13;2.08;;;16.40;89.10;;;;;;2026356;29;20475;-93
2021/09/24 03:06:00;;;;;;;4.63;1.92;;;16.40;89.10;;;;;;2034431;29;20044;-93
2021/09/24 03:07:01;;;;;;;4.68;2.00;;;16.40;89.20;;;;;;2041963;29;20044;-93
2021/09/24 03:08:02;;;;;;;3.53;2.10;;;16.40;89.20;;;;;;2050231;29;20038;-93
2021/09/24 03:09:03;;;;;;;5.07;1.98;;;16.30;89.10;;;;;;2042062;29;20032;-94
2021/09/24 03:10:06;;;;;;;4.68;2.20;;;16.40;89.20;;;;;;2044098;29;20383;-94
2021/09/24 03:11:07;;;;;;;4.63;1.92;;;16.30;89.20;;;;;;2052197;28;20062;-94
2021/09/24 03:12:08;;;;;;;5.25;2.05;;;16.40;89.20;;;;;;2039766;29;20044;-94
2021/09/24 03:13:08;;;;;;;4.80;2.17;;;16.40;89.20;;;;;;2050802;28;20111;-93
2021/09/24 03:14:09;;;;;;;3.72;2.30;;;16.30;89.20;;;;;;2049079;29;20044;-93
2021/09/24 03:15:11;;;;;;;5.13;1.88;;;16.30;89.20;;;;;;2051998;28;20071;-93
2021/09/24 03:16:13;;;;;;;4.20;1.83;;;16.30;89.20;;;;;;2067070;28;20045;-94
2021/09/24 03:17:13;;;;;;;4.65;1.90;;;16.30;89.20;;;;;;2055840;28;20044;-94
2021/09/24 03:18:14;;;;;;;4.78;1.90;;;16.40;89.30;;;;;;2061032;28;20498;-93
2021/09/24 03:19:19;;;;;;;5.38;2.40;;;16.40;89.30;;;;;;2058818;28;20046;-94
2021/09/24 03:20:20;;;;;;;4.95;1.90;;;16.30;89.80;;;;;;2049057;28;20054;-93
2021/09/24 03:21:21;;;;;;;4.30;2.30;;;16.30;89.30;;;;;;2058841;28;20432;-93
2021/09/24 03:22:21;;;;;;;4.57;2.22;;;16.30;89.20;;;;;;2050355;28;20054;-93
2021/09/24 03:23:22;;;;;;;4.18;2.20;;;16.30;89.20;;;;;;2042239;29;20139;-93
2021/09/24 03:24:23;;;;;;;3.28;2.00;;;16.30;89.20;;;;;;2054319;28;20131;-93
2021/09/24 03:25:24;;;;;;;4.55;2.13;;;16.30;89.20;;;;;;2058300;28;20039;-94
2021/09/24 03:26:24;;;;;;;4.05;2.17;;;16.30;89.20;;;;;;2050013;29;20454;-93
2021/09/24 03:27:25;;;;;;;5.07;2.30;;;16.30;89.20;;;;;;2056362;28;20081;-93
2021/09/24 03:28:26;;;;;;;3.38;1.90;;;16.30;89.20;;;;;;2058202;28;20085;-94
2021/09/24 03:29:27;;;;;;;4.38;2.10;;;16.30;89.30;;;;;;2054657;28;20082;-94
2021/09/24 03:30:28;;;;;;;5.55;2.17;;;16.30;89.30;;;;;;2054865;28;20039;-93
2021/09/24 03:31:29;;;;;;;4.32;1.95;;;16.30;89.30;;;;;;2042041;29;20536;-93
2021/09/24 03:32:30;;;;;;;3.75;2.20;;;16.30;89.40;;;;;;2042266;28;20031;-94
2021/09/24 03:33:30;;;;;;;4.40;2.28;;;16.30;89.40;;;;;;2041975;29;20052;-94
2021/09/24 03:34:31;;;;;;;4.45;2.00;;;16.30;89.40;;;;;;2041800;29;20138;-93
2021/09/24 03:35:32;;;;;;;4.93;2.33;;;16.30;89.40;;;;;;2029226;29;20139;-93
2021/09/24 03:36:34;;;;;;;4.47;2.20;;;16.20;89.40;;;;;;2040631;28;20035;-94
2021/09/24 03:37:35;;;;;;;5.43;2.50;;;16.30;89.40;;;;;;2057149;28;20045;-94
2021/09/24 03:38:36;;;;;;;4.70;2.20;;;16.20;89.40;;;;;;2062379;28;20486;-93
2021/09/24 03:39:36;;;;;;;3.75;2.17;;;16.20;89.40;;;;;;2054355;28;20043;-94
2021/09/24 03:40:37;;;;;;;5.55;2.33;;;16.20;89.40;;;;;;2053538;28;20521;-93
2021/09/24 03:41:40;;;;;;;4.50;2.20;;;16.20;89.40;;;;;;2049903;29;20035;-93
2021/09/24 03:42:41;;;;;;;4.35;2.03;;;16.20;89.40;;;;;;2054608;28;20047;-93
2021/09/24 03:43:42;;;;;;;4.32;2.00;;;16.20;89.50;;;;;;2057851;28;20042;-93
2021/09/24 03:44:42;;;;;;;3.95;2.17;;;16.20;89.40;;;;;;2049560;28;20556;-93
2021/09/24 03:45:43;;;;;;;3.63;1.98;;;16.20;89.50;;;;;;2057008;28;20097;-93
2021/09/24 03:46:43;;;;;;;5.07;2.33;;;16.20;89.60;;;;;;2057015;28;20136;-94
2021/09/24 03:47:44;;;;;;;3.90;2.22;;;16.10;89.60;;;;;;2049842;29;20071;-93
2021/09/24 03:48:45;;;;;;;5.95;2.30;;;16.10;89.60;;;;;;2051741;28;20058;-93
2021/09/24 03:49:46;;;;;;;4.60;2.53;;;16.10;89.60;;;;;;2058261;28;20535;-93
2021/09/24 03:50:46;;;;;;;4.60;2.38;;;16.10;89.70;;;;;;2057801;28;20405;-93
2021/09/24 03:51:47;;;;;;;4.75;2.60;;;16.10;89.80;;;;;;2049429;28;20039;-94
2021/09/24 03:52:48;;;;;;;5.68;2.75;;;16.00;89.70;;;;;;2041810;29;20039;-93
2021/09/24 03:53:48;;;;;;;5.60;2.80;;;16.10;89.80;;;;;;2035205;29;20411;-93
2021/09/24 03:54:49;;;;;;;6.15;3.15;;;16.00;89.80;;;;;;2056791;28;20043;-93
2021/09/24 03:55:52;;;;;;;6.07;3.38;;;16.00;89.80;;;;;;2057484;28;20031;-94
2021/09/24 03:56:53;;;;;;;5.68;3.33;;;16.00;89.90;;;;;;2057965;28;20050;-93
2021/09/24 03:57:54;;;;;;;5.22;2.83;;;16.00;89.90;;;;;;2066212;28;20504;-94
2021/09/24 03:58:54;;;;;;;5.10;3.38;;;16.00;89.90;;;;;;2041834;29;20043;-93
2021/09/24 03:59:55;;;;;;;6.40;3.58;;;16.00;89.90;;;;;;2046717;28;20077;-93
2021/09/24 04:00:56;;;;;;;4.65;3.08;;;16.00;89.90;;;;;;2056061;28;20090;-93
2021/09/24 04:01:56;;;;;;;5.82;3.45;;;16.00;89.90;;;;;;2033310;29;20071;-93
2021/09/24 04:02:57;;;;;;;6.70;3.90;;;16.00;90.00;;;;;;2038840;29;20046;-93
2021/09/24 04:03:58;;;;;;;7.05;4.35;;;16.00;90.00;;;;;;2046775;28;20078;-93
2021/09/24 04:04:58;;;;;;;6.18;3.75;;;16.00;90.00;;;;;;2057386;28;20035;-93
2021/09/24 04:05:59;;;;;;;6.80;3.97;;;16.00;90.00;;;;;;2057578;28;20031;-93
2021/09/24 04:06:59;;;;;;;6.00;3.90;;;16.00;90.00;;;;;;2057019;28;20130;-93
2021/09/24 04:08:00;;;;;;;5.32;3.63;;;16.00;90.00;;;;;;2056938;28;20045;-93
2021/09/24 04:09:01;;;;;;;5.47;3.80;;;15.90;90.00;;;;;;2049710;28;20043;-93
2021/09/24 04:10:02;;;;;;;5.90;3.83;;;15.90;90.00;;;;;;2046971;28;20061;-93
2021/09/24 04:11:04;;;;;;;6.43;4.40;;;15.90;90.00;;;;;;2063756;28;20061;-93
2021/09/24 04:12:05;;;;;;;7.03;4.00;;;15.90;90.00;;;;;;2049547;28;20054;-93
2021/09/24 04:13:06;;;;;;;6.38;4.18;;;15.90;90.00;;;;;;2043242;29;20048;-93
2021/09/24 04:14:07;;;;;;;6.70;4.65;;;15.90;90.00;;;;;;2049190;28;20632;-93
2021/09/24 04:15:08;;;;;;;7.85;4.55;;;16.00;90.10;;;;;;2049359;28;20047;-93
2021/09/24 04:16:09;;;;;;;8.35;4.88;;;15.90;90.00;;;;;;2049439;29;20039;-94
2021/09/24 04:17:09;;;;;;;8.43;5.43;;;15.90;90.10;;;;;;2055429;28;20521;-93
2021/09/24 04:18:10;;;;;;;7.60;5.53;;;16.00;90.10;;;;;;2040893;29;20051;-93
2021/09/24 04:19:10;;;;;;;8.13;5.75;;;15.90;90.10;;;;;;2041636;29;20052;-93
2021/09/24 04:20:11;;;;;;;9.07;5.95;;;15.90;90.10;;;;;;2049464;28;20050;-94
2021/09/24 04:21:12;;;;;;;8.95;6.10;;;15.90;90.10;;;;;;2047826;29;20195;-93
2021/09/24 04:22:13;;;;;;;7.60;6.13;;;15.90;90.10;;;;;;2045082;28;20566;-93
2021/09/24 04:23:15;;;;;;;8.00;5.97;;;16.00;90.10;;;;;;2065127;28;20038;-93
2021/09/24 04:24:16;;;;;;;9.93;6.50;;;15.90;90.10;;;;;;2063875;28;20030;-93
2021/09/24 04:25:17;;;;;;;8.55;6.57;;;15.90;90.10;;;;;;2044528;29;20573;-93
2021/09/24 04:26:18;;;;;;;9.05;6.72;;;16.00;90.10;;;;;;2048812;28;20806;-93
2021/09/24 04:27:19;;;;;;;10.80;7.07;;;15.90;90.10;;;;;;2052024;28;20576;-96
2021/09/24 04:28:20;;;;;;;10.95;7.25;;;16.00;90.20;;;;;;2041990;29;20043;-92
2021/09/24 04:29:20;;;;;;;9.93;7.65;;;15.90;90.40;;;;;;2047842;28;20095;-92
2021/09/24 04:30:21;;;;;;;9.52;7.10;;;16.00;90.20;;;;;;2041740;29;20059;-92
2021/09/24 04:31:23;;;;;;;9.90;7.70;;;15.90;90.20;;;;;;2041783;29;20071;-93
2021/09/24 04:32:24;;;;;;;8.90;7.43;;;16.00;90.20;;;;;;2041615;28;20040;-93
2021/09/24 04:33:25;;;;;;;11.23;8.02;;;15.90;90.50;;;;;;2041738;29;20163;-93
2021/09/24 04:34:26;;;;;;;10.20;8.10;;;15.90;90.20;;;;;;2057690;28;20039;-93
2021/09/24 04:35:27;;;;;;;11.63;8.23;;;16.00;90.20;;;;;;2049838;28;20043;-93
2021/09/24 04:36:28;;;;;;;11.07;8.18;;;16.00;90.20;;;;;;2056918;28;20035;-93
2021/09/24 04:37:29;;;;;;;11.07;8.90;;;16.00;90.30;;;;;;2040784;29;20058;-93
2021/09/24 04:38:29;;;;;;;11.32;8.55;;;16.00;90.30;;;;;;2056307;28;20039;-91
2021/09/24 04:39:30;;;;;;;12.15;9.07;;;16.00;90.30;;;;;;2061006;28;20117;-91
2021/09/24 04:40:31;;;;;;;11.80;8.98;;;15.90;90.30;;;;;;2064200;28;20049;-92
2021/09/24 04:41:32;;;;;;;10.80;8.82;;;15.90;90.30;;;;;;2056080;28;20516;-92
2021/09/24 04:42:33;;;;;;;11.23;8.90;;;15.90;90.30;;;;;;2041493;29;20035;-93
2021/09/24 04:43:33;;;;;;;13.13;9.10;;;15.90;90.30;;;;;;2054027;28;20115;-92
2021/09/24 04:44:34;;;;;;;11.77;9.45;;;15.90;90.30;;;;;;2056074;28;20066;-93
2021/09/24 04:45:35;;;;;;;11.70;9.25;;;16.00;90.40;;;;;;2041936;28;20062;-91
2021/09/24 04:46:36;;;;;;;12.88;9.65;;;15.90;90.40;;;;;;2041755;28;20601;-93
2021/09/24 04:47:37;;;;;;;11.50;9.35;;;15.90;90.40;;;;;;2062466;28;20066;-93
2021/09/24 04:48:37;;;;;;;13.40;9.18;;;15.90;90.40;;;;;;2065856;28;20628;-92
2021/09/24 04:49:38;;;;;;;12.60;10.27;;;15.90;90.70;;;;;;2049407;29;20075;-92
2021/09/24 04:50:39;;;;;;;13.43;10.45;;;15.90;90.40;;;;;;2041374;29;20043;-93
2021/09/24 04:51:40;;;;;;;13.02;10.35;;;15.90;90.40;;;;;;2041585;29;20040;-93
2021/09/24 04:52:41;;;;;;;14.63;11.23;;;15.90;90.50;;;;;;2056931;28;20047;-93
2021/09/24 04:53:41;;;;;;;14.57;10.98;;;15.90;90.50;;;;;;2057258;28;20057;-93
2021/09/24 04:54:42;;;;;;;15.00;11.18;;;15.90;90.50;;;;;;2057070;28;20043;-92
2021/09/24 04:55:42;;;;;;;14.18;11.45;;;15.90;90.50;;;;;;2065084;28;20034;-93
2021/09/24 04:56:44;;;;;;;15.32;11.63;;;15.90;90.50;;;;;;2057468;28;20038;-90
2021/09/24 04:57:44;;;;;;;15.65;11.65;;;15.90;90.50;;;;;;2055614;28;20038;-91
2021/09/24 04:58:45;;;;;;;17.60;12.30;;;15.90;90.50;;;;;;2068516;28;20473;-91
2021/09/24 04:59:45;;;;;;;16.70;12.02;;;15.90;90.60;;;;;;2075022;28;20041;-89
2021/09/24 05:00:48;;;;;;;17.77;12.68;;;15.90;90.60;;;;;;2074711;28;20034;-86
2021/09/24 05:01:48;;;;;;;19.58;13.23;;;15.90;90.60;;;;;;2070106;28;20061;-92
2021/09/24 05:02:49;;;;;;;19.60;14.00;;;15.90;90.60;;;;;;2068197;28;20038;-93
2021/09/24 05:03:50;;;;;;;17.98;13.15;;;15.90;90.60;;;;;;2064783;28;20551;-93
2021/09/24 05:04:50;;;;;;;19.70;13.63;;;15.90;90.70;;;;;;2056960;28;20078;-93
2021/09/24 05:05:52;;;;;;;20.38;13.70;;;15.90;90.70;;;;;;2052673;28;20030;-93
2021/09/24 05:06:53;;;;;;;19.10;13.52;;;15.90;90.70;;;;;;2056883;28;20041;-93
2021/09/24 05:07:53;;;;;;;22.45;13.98;;;15.90;90.70;;;;;;2057025;28;20039;-93
2021/09/24 05:08:54;;;;;;;20.98;13.80;;;15.90;90.70;;;;;;2064820;28;20145;-93
2021/09/24 05:09:54;;;;;;;20.63;13.70;;;16.00;90.70;;;;;;2056581;28;20031;-93
2021/09/24 05:10:55;;;;;;;20.73;14.55;;;15.90;90.70;;;;;;2049181;29;20032;-93
2021/09/24 05:11:56;;;;;;;19.70;13.98;;;16.00;90.70;;;;;;2051707;28;20039;-93
2021/09/24 05:12:56;;;;;;;20.75;13.52;;;16.00;90.70;;;;;;2060677;28;20190;-93
2021/09/24 05:13:58;;;;;;;20.85;14.02;;;16.00;90.80;;;;;;2066151;28;20567;-93
2021/09/24 05:14:58;;;;;;;17.95;13.57;;;16.00;90.70;;;;;;2066019;28;20027;-93
2021/09/24 05:15:59;;;;;;;21.17;14.40;;;16.00;90.80;;;;;;2070842;28;20065;-92